Terminal Aerodrome Forecast
Issued by NWS

Home | Current Version | Previous Version | Text Only | Print | Product List | Glossary On
Versions: 1 2 3 4 5 6 7 8 9 10 11 12 13 14 15 16 17 18 19 20 21 22 23 24 25 26 27 28 29 30 31 32 33 34 35 36 37 38 39 40 41 42 43 44 45 46
000
FTUS43 KLOT 211121
TAFGYY
TAF
KGYY 211121Z 2112/2212 18007KT P6SM FEW040 OVC250
     FM211800 20008KT P6SM VCSH BKN045 BKN150
     FM212100 19009KT P6SM SCT050 BKN150
     FM220700 20009KT P6SM VCTS BKN050CB
     FM220900 21009KT 4SM TSRA OVC035CB
      TEMPO 2209/2211 2SM TSRA OVC015CB
     FM221100 25010KT 6SM -SHRA OVC020=

USA.gov is the U.S. government's official web portal to all federal, state and local government web resources and services.